sensor_id;sensor_type;location;lat;lon;timestamp;temperature;humidity
3416;DHT22;1721;51.238;9.562;2023-07-13T00:01:29;17.80;90.30
3416;DHT22;1721;51.238;9.562;2023-07-13T00:03:58;17.60;90.50
3416;DHT22;1721;51.238;9.562;2023-07-13T00:06:24;17.70;90.40
3416;DHT22;1721;51.238;9.562;2023-07-13T00:08:50;17.60;90.60
3416;DHT22;1721;51.238;9.562;2023-07-13T00:11:16;17.70;90.60
3416;DHT22;1721;51.238;9.562;2023-07-13T00:13:42;17.80;90.50
3416;DHT22;1721;51.238;9.562;2023-07-13T00:16:09;17.80;90.50
3416;DHT22;1721;51.238;9.562;2023-07-13T00:18:35;17.80;90.60
3416;DHT22;1721;51.238;9.562;2023-07-13T00:21:01;17.80;90.50
3416;DHT22;1721;51.238;9.562;2023-07-13T00:23:32;17.80;90.50
3416;DHT22;1721;51.238;9.562;2023-07-13T00:26:00;17.90;90.20
3416;DHT22;1721;51.238;9.562;2023-07-13T00:28:25;17.70;90.40
3416;DHT22;1721;51.238;9.562;2023-07-13T00:30:51;17.60;90.40
3416;DHT22;1721;51.238;9.562;2023-07-13T00:33:16;17.50;90.60
3416;DHT22;1721;51.238;9.562;2023-07-13T00:35:42;17.50;90.90
3416;DHT22;1721;51.238;9.562;2023-07-13T00:38:09;17.60;90.90
3416;DHT22;1721;51.238;9.562;2023-07-13T00:40:35;17.70;91.00
3416;DHT22;1721;51.238;9.562;2023-07-13T00:43:00;17.80;91.00
3416;DHT22;1721;51.238;9.562;2023-07-13T00:47:51;17.90;90.70
3416;DHT22;1721;51.238;9.562;2023-07-13T00:50:18;18.00;90.70
3416;DHT22;1721;51.238;9.562;2023-07-13T00:52:51;18.00;90.60
3416;DHT22;1721;51.238;9.562;2023-07-13T00:55:19;18.10;90.50
3416;DHT22;1721;51.238;9.562;2023-07-13T00:57:45;18.20;90.40
3416;DHT22;1721;51.238;9.562;2023-07-13T01:00:11;18.20;90.60
3416;DHT22;1721;51.238;9.562;2023-07-13T01:02:39;18.10;90.70
3416;DHT22;1721;51.238;9.562;2023-07-13T01:05:13;18.20;90.90
3416;DHT22;1721;51.238;9.562;2023-07-13T01:07:40;18.00;91.30
3416;DHT22;1721;51.238;9.562;2023-07-13T01:10:07;18.00;91.30
3416;DHT22;1721;51.238;9.562;2023-07-13T01:12:33;18.10;91.30
3416;DHT22;1721;51.238;9.562;2023-07-13T01:15:00;18.00;91.30
3416;DHT22;1721;51.238;9.562;2023-07-13T01:17:26;18.00;91.50
3416;DHT22;1721;51.238;9.562;2023-07-13T01:19:53;18.10;91.40
3416;DHT22;1721;51.238;9.562;2023-07-13T01:22:19;18.10;91.20
3416;DHT22;1721;51.238;9.562;2023-07-13T01:24:46;18.10;91.20
3416;DHT22;1721;51.238;9.562;2023-07-13T01:27:15;18.20;91.30
3416;DHT22;1721;51.238;9.562;2023-07-13T01:29:42;18.10;91.30
3416;DHT22;1721;51.238;9.562;2023-07-13T01:32:11;18.20;91.40
3416;DHT22;1721;51.238;9.562;2023-07-13T01:34:36;18.20;91.40
3416;DHT22;1721;51.238;9.562;2023-07-13T01:37:03;18.20;91.40
3416;DHT22;1721;51.238;9.562;2023-07-13T01:39:29;18.20;91.30
3416;DHT22;1721;51.238;9.562;2023-07-13T01:41:55;18.10;91.60
3416;DHT22;1721;51.238;9.562;2023-07-13T01:44:20;18.00;91.60
3416;DHT22;1721;51.238;9.562;2023-07-13T01:46:46;18.00;91.70
3416;DHT22;1721;51.238;9.562;2023-07-13T01:49:11;18.00;91.50
3416;DHT22;1721;51.238;9.562;2023-07-13T01:51:37;18.00;91.10
3416;DHT22;1721;51.238;9.562;2023-07-13T01:54:03;18.00;91.10
3416;DHT22;1721;51.238;9.562;2023-07-13T01:56:28;18.00;91.50
3416;DHT22;1721;51.238;9.562;2023-07-13T01:58:54;18.00;91.20
3416;DHT22;1721;51.238;9.562;2023-07-13T02:01:19;18.20;91.30
3416;DHT22;1721;51.238;9.562;2023-07-13T02:03:45;18.20;91.20
3416;DHT22;1721;51.238;9.562;2023-07-13T02:06:12;18.30;91.20
3416;DHT22;1721;51.238;9.562;2023-07-13T02:08:37;18.30;91.10
3416;DHT22;1721;51.238;9.562;2023-07-13T02:11:03;18.30;91.50
3416;DHT22;1721;51.238;9.562;2023-07-13T02:13:29;18.20;91.60
3416;DHT22;1721;51.238;9.562;2023-07-13T02:15:54;18.30;91.80
3416;DHT22;1721;51.238;9.562;2023-07-13T02:18:20;18.30;91.60
3416;DHT22;1721;51.238;9.562;2023-07-13T02:20:46;18.30;91.80
3416;DHT22;1721;51.238;9.562;2023-07-13T02:23:11;18.20;91.70
3416;DHT22;1721;51.238;9.562;2023-07-13T02:25:37;18.30;91.80
3416;DHT22;1721;51.238;9.562;2023-07-13T02:28:03;18.50;91.60
3416;DHT22;1721;51.238;9.562;2023-07-13T02:30:29;18.50;91.40
3416;DHT22;1721;51.238;9.562;2023-07-13T02:32:56;18.50;91.30
3416;DHT22;1721;51.238;9.562;2023-07-13T02:35:21;18.50;91.30
3416;DHT22;1721;51.238;9.562;2023-07-13T02:37:47;18.50;91.30
3416;DHT22;1721;51.238;9.562;2023-07-13T02:40:13;18.40;91.10
3416;DHT22;1721;51.238;9.562;2023-07-13T02:42:38;18.20;90.70
3416;DHT22;1721;51.238;9.562;2023-07-13T02:45:04;18.10;90.80
3416;DHT22;1721;51.238;9.562;2023-07-13T02:47:32;18.00;90.80
3416;DHT22;1721;51.238;9.562;2023-07-13T02:49:57;18.00;90.80
3416;DHT22;1721;51.238;9.562;2023-07-13T02:52:23;18.00;90.90
3416;DHT22;1721;51.238;9.562;2023-07-13T02:54:48;17.90;90.80
3416;DHT22;1721;51.238;9.562;2023-07-13T02:57:14;17.80;91.00
3416;DHT22;1721;51.238;9.562;2023-07-13T02:59:39;17.80;90.90
3416;DHT22;1721;51.238;9.562;2023-07-13T03:02:05;17.70;90.90
3416;DHT22;1721;51.238;9.562;2023-07-13T03:04:30;17.60;90.90
3416;DHT22;1721;51.238;9.562;2023-07-13T03:06:56;17.60;90.90
3416;DHT22;1721;51.238;9.562;2023-07-13T03:09:24;17.50;91.00
3416;DHT22;1721;51.238;9.562;2023-07-13T03:11:53;17.40;91.00
3416;DHT22;1721;51.238;9.562;2023-07-13T03:14:19;17.40;91.10
3416;DHT22;1721;51.238;9.562;2023-07-13T03:16:44;17.30;91.10
3416;DHT22;1721;51.238;9.562;2023-07-13T03:19:10;17.20;91.30
3416;DHT22;1721;51.238;9.562;2023-07-13T03:21:35;17.10;91.30
3416;DHT22;1721;51.238;9.562;2023-07-13T03:24:01;17.10;91.30
3416;DHT22;1721;51.238;9.562;2023-07-13T03:26:26;17.00;91.40
3416;DHT22;1721;51.238;9.562;2023-07-13T03:28:52;17.00;91.50
3416;DHT22;1721;51.238;9.562;2023-07-13T03:31:20;16.90;91.50
3416;DHT22;1721;51.238;9.562;2023-07-13T03:33:46;16.90;91.50
3416;DHT22;1721;51.238;9.562;2023-07-13T03:36:18;16.90;91.40
3416;DHT22;1721;51.238;9.562;2023-07-13T03:38:48;16.90;91.40
3416;DHT22;1721;51.238;9.562;2023-07-13T03:41:15;16.90;91.40
3416;DHT22;1721;51.238;9.562;2023-07-13T03:43:40;16.80;91.30
3416;DHT22;1721;51.238;9.562;2023-07-13T03:46:06;16.80;91.40
3416;DHT22;1721;51.238;9.562;2023-07-13T03:48:32;16.80;91.30
3416;DHT22;1721;51.238;9.562;2023-07-13T03:50:57;16.70;91.40
3416;DHT22;1721;51.238;9.562;2023-07-13T03:53:23;16.70;91.40
3416;DHT22;1721;51.238;9.562;2023-07-13T03:55:48;16.70;91.40
3416;DHT22;1721;51.238;9.562;2023-07-13T03:58:27;16.70;91.40
3416;DHT22;1721;51.238;9.562;2023-07-13T04:00:54;16.70;91.50
3416;DHT22;1721;51.238;9.562;2023-07-13T04:03:20;16.60;91.60
3416;DHT22;1721;51.238;9.562;2023-07-13T04:05:45;16.60;91.60
3416;DHT22;1721;51.238;9.562;2023-07-13T04:08:11;16.70;91.80
3416;DHT22;1721;51.238;9.562;2023-07-13T04:10:37;16.70;91.90
3416;DHT22;1721;51.238;9.562;2023-07-13T04:13:04;16.70;91.90
3416;DHT22;1721;51.238;9.562;2023-07-13T04:15:30;16.70;92.00
3416;DHT22;1721;51.238;9.562;2023-07-13T04:17:56;16.80;92.00
3416;DHT22;1721;51.238;9.562;2023-07-13T04:20:22;16.80;92.20
3416;DHT22;1721;51.238;9.562;2023-07-13T04:22:49;16.80;92.10
3416;DHT22;1721;51.238;9.562;2023-07-13T04:25:14;16.80;92.10
3416;DHT22;1721;51.238;9.562;2023-07-13T04:27:40;16.90;92.30
3416;DHT22;1721;51.238;9.562;2023-07-13T04:30:06;16.90;92.30
3416;DHT22;1721;51.238;9.562;2023-07-13T04:32:32;17.00;92.40
3416;DHT22;1721;51.238;9.562;2023-07-13T04:34:58;17.10;92.40
3416;DHT22;1721;51.238;9.562;2023-07-13T04:37:25;17.10;92.60
3416;DHT22;1721;51.238;9.562;2023-07-13T04:39:51;17.20;92.70
3416;DHT22;1721;51.238;9.562;2023-07-13T04:42:17;17.30;92.70
3416;DHT22;1721;51.238;9.562;2023-07-13T04:44:48;17.40;92.70
3416;DHT22;1721;51.238;9.562;2023-07-13T04:47:13;17.50;92.60
3416;DHT22;1721;51.238;9.562;2023-07-13T04:49:39;17.60;92.50
3416;DHT22;1721;51.238;9.562;2023-07-13T04:52:05;17.80;92.60
3416;DHT22;1721;51.238;9.562;2023-07-13T04:54:33;17.90;92.40
3416;DHT22;1721;51.238;9.562;2023-07-13T04:56:59;18.10;92.40
3416;DHT22;1721;51.238;9.562;2023-07-13T04:59:25;18.10;92.10
3416;DHT22;1721;51.238;9.562;2023-07-13T05:01:50;18.20;92.10
3416;DHT22;1721;51.238;9.562;2023-07-13T05:04:16;18.40;91.90
3416;DHT22;1721;51.238;9.562;2023-07-13T05:06:42;18.60;91.90
3416;DHT22;1721;51.238;9.562;2023-07-13T05:09:07;18.80;91.80
3416;DHT22;1721;51.238;9.562;2023-07-13T05:11:33;19.10;91.70
3416;DHT22;1721;51.238;9.562;2023-07-13T05:13:59;19.40;91.20
3416;DHT22;1721;51.238;9.562;2023-07-13T05:16:26;19.80;90.50
3416;DHT22;1721;51.238;9.562;2023-07-13T05:18:52;20.20;89.40
3416;DHT22;1721;51.238;9.562;2023-07-13T05:21:18;20.70;87.70
3416;DHT22;1721;51.238;9.562;2023-07-13T05:23:43;21.20;86.40
3416;DHT22;1721;51.238;9.562;2023-07-13T05:26:09;21.50;85.00
3416;DHT22;1721;51.238;9.562;2023-07-13T05:28:34;21.90;83.20
3416;DHT22;1721;51.238;9.562;2023-07-13T05:31:00;22.30;82.00
3416;DHT22;1721;51.238;9.562;2023-07-13T05:33:26;22.60;80.50
3416;DHT22;1721;51.238;9.562;2023-07-13T05:35:52;22.90;79.90
3416;DHT22;1721;51.238;9.562;2023-07-13T05:38:18;22.80;77.20
3416;DHT22;1721;51.238;9.562;2023-07-13T05:40:44;22.80;76.30
3416;DHT22;1721;51.238;9.562;2023-07-13T05:43:09;22.60;77.30
3416;DHT22;1721;51.238;9.562;2023-07-13T05:45:35;22.80;77.50
3416;DHT22;1721;51.238;9.562;2023-07-13T05:48:01;22.60;76.40
3416;DHT22;1721;51.238;9.562;2023-07-13T05:50:27;22.90;77.00
3416;DHT22;1721;51.238;9.562;2023-07-13T05:52:52;23.40;75.40
3416;DHT22;1721;51.238;9.562;2023-07-13T05:55:19;23.70;73.70
3416;DHT22;1721;51.238;9.562;2023-07-13T05:57:44;23.60;72.60
3416;DHT22;1721;51.238;9.562;2023-07-13T06:00:11;23.70;73.10
3416;DHT22;1721;51.238;9.562;2023-07-13T06:02:36;23.50;72.60
3416;DHT22;1721;51.238;9.562;2023-07-13T06:05:02;23.90;72.90
3416;DHT22;1721;51.238;9.562;2023-07-13T06:07:27;24.20;72.30
3416;DHT22;1721;51.238;9.562;2023-07-13T06:09:53;24.60;71.80
3416;DHT22;1721;51.238;9.562;2023-07-13T06:12:19;24.90;70.90
3416;DHT22;1721;51.238;9.562;2023-07-13T06:14:44;24.90;70.20
3416;DHT22;1721;51.238;9.562;2023-07-13T06:17:10;24.50;69.60
3416;DHT22;1721;51.238;9.562;2023-07-13T06:19:35;24.40;70.70
3416;DHT22;1721;51.238;9.562;2023-07-13T06:22:01;24.10;70.20
3416;DHT22;1721;51.238;9.562;2023-07-13T06:24:26;24.00;71.60
3416;DHT22;1721;51.238;9.562;2023-07-13T06:26:52;24.10;71.30
3416;DHT22;1721;51.238;9.562;2023-07-13T06:29:18;24.20;71.10
3416;DHT22;1721;51.238;9.562;2023-07-13T06:31:43;24.30;69.90
3416;DHT22;1721;51.238;9.562;2023-07-13T06:34:09;23.90;69.50
3416;DHT22;1721;51.238;9.562;2023-07-13T06:36:34;23.40;69.80
3416;DHT22;1721;51.238;9.562;2023-07-13T06:39:02;23.30;70.80
3416;DHT22;1721;51.238;9.562;2023-07-13T06:41:27;23.40;71.40
3416;DHT22;1721;51.238;9.562;2023-07-13T06:43:53;23.30;71.10
3416;DHT22;1721;51.238;9.562;2023-07-13T06:46:21;23.40;70.90
3416;DHT22;1721;51.238;9.562;2023-07-13T06:48:47;23.50;71.50
3416;DHT22;1721;51.238;9.562;2023-07-13T06:51:12;23.30;71.50
3416;DHT22;1721;51.238;9.562;2023-07-13T06:53:38;23.30;72.20
3416;DHT22;1721;51.238;9.562;2023-07-13T06:56:04;23.30;71.90
3416;DHT22;1721;51.238;9.562;2023-07-13T06:58:30;23.30;71.30
3416;DHT22;1721;51.238;9.562;2023-07-13T07:00:56;23.50;71.80
3416;DHT22;1721;51.238;9.562;2023-07-13T07:03:21;23.50;72.20
3416;DHT22;1721;51.238;9.562;2023-07-13T07:05:47;23.60;71.30
3416;DHT22;1721;51.238;9.562;2023-07-13T07:08:13;23.50;71.00
3416;DHT22;1721;51.238;9.562;2023-07-13T07:10:40;23.30;72.50
3416;DHT22;1721;51.238;9.562;2023-07-13T07:13:05;23.00;72.40
3416;DHT22;1721;51.238;9.562;2023-07-13T07:15:31;23.00;73.30
3416;DHT22;1721;51.238;9.562;2023-07-13T07:17:57;23.00;73.90
3416;DHT22;1721;51.238;9.562;2023-07-13T07:20:22;22.80;73.00
3416;DHT22;1721;51.238;9.562;2023-07-13T07:22:48;22.70;74.50
3416;DHT22;1721;51.238;9.562;2023-07-13T07:25:14;22.60;74.00
3416;DHT22;1721;51.238;9.562;2023-07-13T07:27:40;22.80;74.90
3416;DHT22;1721;51.238;9.562;2023-07-13T07:30:06;22.90;73.60
3416;DHT22;1721;51.238;9.562;2023-07-13T07:32:31;22.90;74.30
3416;DHT22;1721;51.238;9.562;2023-07-13T07:34:58;23.00;73.90
3416;DHT22;1721;51.238;9.562;2023-07-13T07:37:23;23.10;74.20
3416;DHT22;1721;51.238;9.562;2023-07-13T07:39:49;23.20;72.80
3416;DHT22;1721;51.238;9.562;2023-07-13T07:42:15;23.10;73.90
3416;DHT22;1721;51.238;9.562;2023-07-13T07:44:41;23.40;73.70
3416;DHT22;1721;51.238;9.562;2023-07-13T07:47:07;23.40;73.30
3416;DHT22;1721;51.238;9.562;2023-07-13T07:49:33;23.20;73.70
3416;DHT22;1721;51.238;9.562;2023-07-13T07:51:58;23.30;71.40
3416;DHT22;1721;51.238;9.562;2023-07-13T07:54:24;23.10;71.70
3416;DHT22;1721;51.238;9.562;2023-07-13T07:56:49;23.10;72.20
3416;DHT22;1721;51.238;9.562;2023-07-13T07:59:15;23.10;72.00
3416;DHT22;1721;51.238;9.562;2023-07-13T08:01:40;23.10;72.30
3416;DHT22;1721;51.238;9.562;2023-07-13T08:04:06;23.00;73.10
3416;DHT22;1721;51.238;9.562;2023-07-13T08:06:32;23.10;73.80
3416;DHT22;1721;51.238;9.562;2023-07-13T08:08:59;23.10;73.80
3416;DHT22;1721;51.238;9.562;2023-07-13T08:11:25;23.10;74.50
3416;DHT22;1721;51.238;9.562;2023-07-13T08:13:51;23.20;73.40
3416;DHT22;1721;51.238;9.562;2023-07-13T08:16:16;23.00;70.40
3416;DHT22;1721;51.238;9.562;2023-07-13T08:18:42;22.90;71.90
3416;DHT22;1721;51.238;9.562;2023-07-13T08:21:08;22.90;73.60
3416;DHT22;1721;51.238;9.562;2023-07-13T08:23:34;23.10;74.70
3416;DHT22;1721;51.238;9.562;2023-07-13T08:26:01;23.10;74.10
3416;DHT22;1721;51.238;9.562;2023-07-13T08:28:27;23.20;72.10
3416;DHT22;1721;51.238;9.562;2023-07-13T08:30:53;23.20;72.00
3416;DHT22;1721;51.238;9.562;2023-07-13T08:33:20;23.20;71.80
3416;DHT22;1721;51.238;9.562;2023-07-13T08:35:47;23.20;73.00
3416;DHT22;1721;51.238;9.562;2023-07-13T08:38:13;23.40;72.60
3416;DHT22;1721;51.238;9.562;2023-07-13T08:40:39;23.50;74.70
3416;DHT22;1721;51.238;9.562;2023-07-13T08:43:12;23.70;73.60
3416;DHT22;1721;51.238;9.562;2023-07-13T08:45:46;24.10;71.70
3416;DHT22;1721;51.238;9.562;2023-07-13T08:48:27;24.10;71.60
3416;DHT22;1721;51.238;9.562;2023-07-13T08:51:02;24.00;71.50
3416;DHT22;1721;51.238;9.562;2023-07-13T08:53:36;24.00;69.80
3416;DHT22;1721;51.238;9.562;2023-07-13T08:56:07;23.70;69.90
3416;DHT22;1721;51.238;9.562;2023-07-13T08:58:36;23.30;71.70
3416;DHT22;1721;51.238;9.562;2023-07-13T09:01:18;23.10;70.80
3416;DHT22;1721;51.238;9.562;2023-07-13T09:06:34;23.10;70.70
3416;DHT22;1721;51.238;9.562;2023-07-13T09:09:10;23.10;71.20
3416;DHT22;1721;51.238;9.562;2023-07-13T09:11:50;23.00;71.50
3416;DHT22;1721;51.238;9.562;2023-07-13T09:16:56;23.10;72.50
3416;DHT22;1721;51.238;9.562;2023-07-13T09:19:27;23.30;73.80
3416;DHT22;1721;51.238;9.562;2023-07-13T09:21:54;23.30;70.50
3416;DHT22;1721;51.238;9.562;2023-07-13T09:24:41;23.10;70.10
3416;DHT22;1721;51.238;9.562;2023-07-13T09:27:15;23.10;71.20
3416;DHT22;1721;51.238;9.562;2023-07-13T09:29:47;23.10;71.10
3416;DHT22;1721;51.238;9.562;2023-07-13T09:32:15;22.90;69.20
3416;DHT22;1721;51.238;9.562;2023-07-13T09:34:42;22.80;70.00
3416;DHT22;1721;51.238;9.562;2023-07-13T09:37:07;22.80;72.30
3416;DHT22;1721;51.238;9.562;2023-07-13T09:39:37;22.80;69.40
3416;DHT22;1721;51.238;9.562;2023-07-13T09:44:38;23.20;71.60
3416;DHT22;1721;51.238;9.562;2023-07-13T09:47:38;23.50;70.00
3416;DHT22;1721;51.238;9.562;2023-07-13T09:50:06;23.90;70.30
3416;DHT22;1721;51.238;9.562;2023-07-13T09:52:44;24.10;68.80
3416;DHT22;1721;51.238;9.562;2023-07-13T09:55:33;24.40;68.90
3416;DHT22;1721;51.238;9.562;2023-07-13T10:00:38;25.00;66.00
3416;DHT22;1721;51.238;9.562;2023-07-13T10:03:20;25.20;65.50
3416;DHT22;1721;51.238;9.562;2023-07-13T10:05:49;25.20;63.20
3416;DHT22;1721;51.238;9.562;2023-07-13T10:10:45;24.80;63.30
3416;DHT22;1721;51.238;9.562;2023-07-13T10:13:31;24.60;65.50
3416;DHT22;1721;51.238;9.562;2023-07-13T10:15:58;24.70;66.10
3416;DHT22;1721;51.238;9.562;2023-07-13T10:18:25;24.60;66.40
3416;DHT22;1721;51.238;9.562;2023-07-13T10:20:58;24.70;66.10
3416;DHT22;1721;51.238;9.562;2023-07-13T10:23:30;24.80;64.90
3416;DHT22;1721;51.238;9.562;2023-07-13T10:25:57;24.70;64.10
3416;DHT22;1721;51.238;9.562;2023-07-13T10:28:31;24.50;65.50
3416;DHT22;1721;51.238;9.562;2023-07-13T10:30:59;24.30;65.20
3416;DHT22;1721;51.238;9.562;2023-07-13T10:33:25;24.50;63.70
3416;DHT22;1721;51.238;9.562;2023-07-13T10:35:57;24.10;64.10
3416;DHT22;1721;51.238;9.562;2023-07-13T10:38:27;23.90;65.50
3416;DHT22;1721;51.238;9.562;2023-07-13T10:41:02;23.80;65.90
3416;DHT22;1721;51.238;9.562;2023-07-13T10:43:41;24.00;67.60
3416;DHT22;1721;51.238;9.562;2023-07-13T10:46:10;24.10;65.00
3416;DHT22;1721;51.238;9.562;2023-07-13T10:48:36;24.30;64.90
3416;DHT22;1721;51.238;9.562;2023-07-13T10:51:05;24.30;66.40
3416;DHT22;1721;51.238;9.562;2023-07-13T10:53:34;24.10;66.60
3416;DHT22;1721;51.238;9.562;2023-07-13T10:58:43;24.10;67.20
3416;DHT22;1721;51.238;9.562;2023-07-13T11:01:17;24.00;63.20
3416;DHT22;1721;51.238;9.562;2023-07-13T11:03:53;24.00;64.80
3416;DHT22;1721;51.238;9.562;2023-07-13T11:08:58;23.90;62.30
3416;DHT22;1721;51.238;9.562;2023-07-13T11:21:27;25.50;67.60
3416;DHT22;1721;51.238;9.562;2023-07-13T11:24:28;25.40;63.60
3416;DHT22;1721;51.238;9.562;2023-07-13T11:26:56;25.30;61.80
3416;DHT22;1721;51.238;9.562;2023-07-13T11:31:58;25.30;62.40
3416;DHT22;1721;51.238;9.562;2023-07-13T11:34:34;25.20;64.10
3416;DHT22;1721;51.238;9.562;2023-07-13T11:37:01;25.00;62.60
3416;DHT22;1721;51.238;9.562;2023-07-13T11:41:59;24.70;63.30
3416;DHT22;1721;51.238;9.562;2023-07-13T11:44:28;24.80;65.80
3416;DHT22;1721;51.238;9.562;2023-07-13T11:46:57;25.10;65.90
3416;DHT22;1721;51.238;9.562;2023-07-13T11:49:28;25.00;63.70
3416;DHT22;1721;51.238;9.562;2023-07-13T11:51:54;25.10;61.50
3416;DHT22;1721;51.238;9.562;2023-07-13T11:54:43;25.20;62.50
3416;DHT22;1721;51.238;9.562;2023-07-13T11:57:33;25.20;62.90
3416;DHT22;1721;51.238;9.562;2023-07-13T12:00:11;25.00;63.50
3416;DHT22;1721;51.238;9.562;2023-07-13T12:02:40;24.60;64.20
3416;DHT22;1721;51.238;9.562;2023-07-13T12:05:10;24.50;64.40
3416;DHT22;1721;51.238;9.562;2023-07-13T12:07:38;24.40;63.50
3416;DHT22;1721;51.238;9.562;2023-07-13T12:10:23;24.50;65.90
3416;DHT22;1721;51.238;9.562;2023-07-13T12:15:22;24.60;63.90
3416;DHT22;1721;51.238;9.562;2023-07-13T12:17:49;24.50;63.50
3416;DHT22;1721;51.238;9.562;2023-07-13T12:20:38;24.30;63.00
3416;DHT22;1721;51.238;9.562;2023-07-13T12:25:53;24.40;63.00
3416;DHT22;1721;51.238;9.562;2023-07-13T12:31:04;25.10;64.50
3416;DHT22;1721;51.238;9.562;2023-07-13T12:33:31;25.00;62.60
3416;DHT22;1721;51.238;9.562;2023-07-13T12:36:00;25.00;65.00
3416;DHT22;1721;51.238;9.562;2023-07-13T12:38:27;25.10;65.40
3416;DHT22;1721;51.238;9.562;2023-07-13T12:40:53;25.30;62.70
3416;DHT22;1721;51.238;9.562;2023-07-13T12:43:23;25.30;63.00
3416;DHT22;1721;51.238;9.562;2023-07-13T12:48:42;25.30;61.20
3416;DHT22;1721;51.238;9.562;2023-07-13T12:51:12;25.30;60.50
3416;DHT22;1721;51.238;9.562;2023-07-13T12:53:47;25.30;60.70
3416;DHT22;1721;51.238;9.562;2023-07-13T12:56:22;25.20;60.60
3416;DHT22;1721;51.238;9.562;2023-07-13T12:58:50;25.20;62.50
3416;DHT22;1721;51.238;9.562;2023-07-13T13:01:21;25.10;61.80
3416;DHT22;1721;51.238;9.562;2023-07-13T13:03:50;25.00;62.00
3416;DHT22;1721;51.238;9.562;2023-07-13T13:08:46;25.10;60.80
3416;DHT22;1721;51.238;9.562;2023-07-13T13:11:14;24.90;60.00
3416;DHT22;1721;51.238;9.562;2023-07-13T13:13:41;24.80;60.20
3416;DHT22;1721;51.238;9.562;2023-07-13T13:16:47;24.50;60.00
3416;DHT22;1721;51.238;9.562;2023-07-13T13:19:20;24.30;61.50
3416;DHT22;1721;51.238;9.562;2023-07-13T13:21:47;24.20;62.90
3416;DHT22;1721;51.238;9.562;2023-07-13T13:24:18;24.30;62.50
3416;DHT22;1721;51.238;9.562;2023-07-13T13:26:45;24.20;61.30
3416;DHT22;1721;51.238;9.562;2023-07-13T13:29:22;24.20;61.20
3416;DHT22;1721;51.238;9.562;2023-07-13T13:31:52;24.30;63.20
3416;DHT22;1721;51.238;9.562;2023-07-13T13:34:19;24.30;60.70
3416;DHT22;1721;51.238;9.562;2023-07-13T13:36:46;24.10;60.30
3416;DHT22;1721;51.238;9.562;2023-07-13T13:39:21;24.00;61.20
3416;DHT22;1721;51.238;9.562;2023-07-13T13:41:49;24.10;60.40
3416;DHT22;1721;51.238;9.562;2023-07-13T13:44:16;24.00;60.90
3416;DHT22;1721;51.238;9.562;2023-07-13T13:46:44;24.00;61.60
3416;DHT22;1721;51.238;9.562;2023-07-13T13:49:18;24.10;61.90
3416;DHT22;1721;51.238;9.562;2023-07-13T13:51:44;24.30;63.30
3416;DHT22;1721;51.238;9.562;2023-07-13T13:54:12;24.40;60.90
3416;DHT22;1721;51.238;9.562;2023-07-13T13:56:37;24.50;62.00
3416;DHT22;1721;51.238;9.562;2023-07-13T13:59:04;24.70;61.60
3416;DHT22;1721;51.238;9.562;2023-07-13T14:01:31;25.00;63.10
3416;DHT22;1721;51.238;9.562;2023-07-13T14:03:56;25.30;63.00
3416;DHT22;1721;51.238;9.562;2023-07-13T14:06:22;25.40;61.50
3416;DHT22;1721;51.238;9.562;2023-07-13T14:08:48;25.40;59.60
3416;DHT22;1721;51.238;9.562;2023-07-13T14:11:16;25.40;58.20
3416;DHT22;1721;51.238;9.562;2023-07-13T14:13:44;25.20;59.50
3416;DHT22;1721;51.238;9.562;2023-07-13T14:16:15;25.30;58.40
3416;DHT22;1721;51.238;9.562;2023-07-13T14:18:46;25.10;59.10
3416;DHT22;1721;51.238;9.562;2023-07-13T14:21:14;25.00;59.00
3416;DHT22;1721;51.238;9.562;2023-07-13T14:23:40;25.10;61.60
3416;DHT22;1721;51.238;9.562;2023-07-13T14:26:17;25.20;61.60
3416;DHT22;1721;51.238;9.562;2023-07-13T14:28:47;25.10;61.90
3416;DHT22;1721;51.238;9.562;2023-07-13T14:31:14;25.00;60.90
3416;DHT22;1721;51.238;9.562;2023-07-13T14:33:40;24.90;63.00
3416;DHT22;1721;51.238;9.562;2023-07-13T14:36:31;25.00;62.60
3416;DHT22;1721;51.238;9.562;2023-07-13T14:38:58;24.80;60.40
3416;DHT22;1721;51.238;9.562;2023-07-13T14:41:25;24.50;59.90
3416;DHT22;1721;51.238;9.562;2023-07-13T14:43:51;24.40;61.20
3416;DHT22;1721;51.238;9.562;2023-07-13T14:46:35;24.40;61.50
3416;DHT22;1721;51.238;9.562;2023-07-13T14:49:06;24.40;63.90
3416;DHT22;1721;51.238;9.562;2023-07-13T14:51:35;24.30;62.00
3416;DHT22;1721;51.238;9.562;2023-07-13T14:54:04;24.20;61.10
3416;DHT22;1721;51.238;9.562;2023-07-13T14:56:30;24.20;62.70
3416;DHT22;1721;51.238;9.562;2023-07-13T14:58:56;24.10;63.70
3416;DHT22;1721;51.238;9.562;2023-07-13T15:01:22;24.20;63.90
3416;DHT22;1721;51.238;9.562;2023-07-13T15:03:49;24.10;63.20
3416;DHT22;1721;51.238;9.562;2023-07-13T15:06:16;24.00;61.40
3416;DHT22;1721;51.238;9.562;2023-07-13T15:08:42;24.00;62.90
3416;DHT22;1721;51.238;9.562;2023-07-13T15:11:08;24.30;62.70
3416;DHT22;1721;51.238;9.562;2023-07-13T15:13:37;24.50;63.40
3416;DHT22;1721;51.238;9.562;2023-07-13T15:16:03;24.70;64.70
3416;DHT22;1721;51.238;9.562;2023-07-13T15:18:30;24.80;63.60
3416;DHT22;1721;51.238;9.562;2023-07-13T15:20:56;25.00;62.80
3416;DHT22;1721;51.238;9.562;2023-07-13T15:23:23;25.00;63.50
3416;DHT22;1721;51.238;9.562;2023-07-13T15:25:49;25.20;61.60
3416;DHT22;1721;51.238;9.562;2023-07-13T15:28:15;25.20;63.00
3416;DHT22;1721;51.238;9.562;2023-07-13T15:30:44;25.10;61.80
3416;DHT22;1721;51.238;9.562;2023-07-13T15:33:17;24.90;60.20
3416;DHT22;1721;51.238;9.562;2023-07-13T15:35:45;25.00;61.10
3416;DHT22;1721;51.238;9.562;2023-07-13T15:38:17;24.90;61.50
3416;DHT22;1721;51.238;9.562;2023-07-13T15:40:43;25.00;63.30
3416;DHT22;1721;51.238;9.562;2023-07-13T15:43:11;25.00;62.10
3416;DHT22;1721;51.238;9.562;2023-07-13T15:45:37;24.90;63.70
3416;DHT22;1721;51.238;9.562;2023-07-13T15:48:16;24.70;61.30
3416;DHT22;1721;51.238;9.562;2023-07-13T15:50:47;24.60;61.30
3416;DHT22;1721;51.238;9.562;2023-07-13T15:53:33;24.90;62.60
3416;DHT22;1721;51.238;9.562;2023-07-13T15:55:59;24.90;62.90
3416;DHT22;1721;51.238;9.562;2023-07-13T15:58:26;24.70;60.10
3416;DHT22;1721;51.238;9.562;2023-07-13T16:00:53;24.70;61.50
3416;DHT22;1721;51.238;9.562;2023-07-13T16:03:20;24.80;60.80
3416;DHT22;1721;51.238;9.562;2023-07-13T16:05:54;24.90;60.30
3416;DHT22;1721;51.238;9.562;2023-07-13T16:08:24;24.90;59.70
3416;DHT22;1721;51.238;9.562;2023-07-13T16:10:51;24.80;59.90
3416;DHT22;1721;51.238;9.562;2023-07-13T16:13:19;24.90;60.60
3416;DHT22;1721;51.238;9.562;2023-07-13T16:15:46;25.00;61.30
3416;DHT22;1721;51.238;9.562;2023-07-13T16:18:12;25.10;59.80
3416;DHT22;1721;51.238;9.562;2023-07-13T16:20:39;25.20;61.90
3416;DHT22;1721;51.238;9.562;2023-07-13T16:23:05;25.10;61.90
3416;DHT22;1721;51.238;9.562;2023-07-13T16:25:31;25.10;60.50
3416;DHT22;1721;51.238;9.562;2023-07-13T16:27:58;25.00;60.70
3416;DHT22;1721;51.238;9.562;2023-07-13T16:30:28;24.80;60.10
3416;DHT22;1721;51.238;9.562;2023-07-13T16:32:56;24.50;59.50
3416;DHT22;1721;51.238;9.562;2023-07-13T16:35:26;24.30;60.30
3416;DHT22;1721;51.238;9.562;2023-07-13T16:37:53;24.10;60.50
3416;DHT22;1721;51.238;9.562;2023-07-13T16:40:25;24.00;60.90
3416;DHT22;1721;51.238;9.562;2023-07-13T16:42:56;24.00;63.10
3416;DHT22;1721;51.238;9.562;2023-07-13T16:45:24;24.10;63.80
3416;DHT22;1721;51.238;9.562;2023-07-13T16:47:51;24.20;64.20
3416;DHT22;1721;51.238;9.562;2023-07-13T16:50:24;24.20;62.50
3416;DHT22;1721;51.238;9.562;2023-07-13T16:52:50;24.10;62.40
3416;DHT22;1721;51.238;9.562;2023-07-13T16:55:18;23.80;63.20
3416;DHT22;1721;51.238;9.562;2023-07-13T16:57:54;23.70;62.90